sensor_id;sensor_type;location;lat;lon;timestamp;pressure;altitude;pressure_sealevel;temperature;humidity
32330;BME280;18807;52.434;13.238;2023-03-21T00:06:55;101261.69;;;8.98;93.24
32330;BME280;18807;52.434;13.238;2023-03-21T00:14:29;101259.00;;;8.96;93.38
32330;BME280;18807;52.434;13.238;2023-03-21T00:22:05;101254.63;;;8.98;94.66
32330;BME280;18807;52.434;13.238;2023-03-21T00:29:58;101248.34;;;8.96;95.34
32330;BME280;18807;52.434;13.238;2023-03-21T00:37:34;101249.25;;;8.97;95.72
32330;BME280;18807;52.434;13.238;2023-03-21T00:45:08;101244.75;;;8.94;95.20
32330;BME280;18807;52.434;13.238;2023-03-21T00:52:44;101250.94;;;8.95;95.25
32330;BME280;18807;52.434;13.238;2023-03-21T01:00:18;101243.78;;;8.92;95.67
32330;BME280;18807;52.434;13.238;2023-03-21T01:07:54;101234.78;;;8.89;97.15
32330;BME280;18807;52.434;13.238;2023-03-21T01:15:28;101239.28;;;8.90;98.13
32330;BME280;18807;52.434;13.238;2023-03-21T01:23:04;101230.19;;;8.83;98.44
32330;BME280;18807;52.434;13.238;2023-03-21T01:30:37;101235.44;;;8.80;99.81
32330;BME280;18807;52.434;13.238;2023-03-21T01:38:15;101230.84;;;8.75;100.00
32330;BME280;18807;52.434;13.238;2023-03-21T01:53:57;101228.72;;;8.63;100.00
32330;BME280;18807;52.434;13.238;2023-03-21T02:01:32;101229.75;;;8.68;100.00
32330;BME280;18807;52.434;13.238;2023-03-21T02:09:10;101221.44;;;8.58;100.00
32330;BME280;18807;52.434;13.238;2023-03-21T02:16:51;101214.25;;;8.55;100.00
32330;BME280;18807;52.434;13.238;2023-03-21T02:24:44;101214.03;;;8.48;100.00
32330;BME280;18807;52.434;13.238;2023-03-21T02:32:43;101207.84;;;8.49;100.00
32330;BME280;18807;52.434;13.238;2023-03-21T02:40:27;101209.63;;;8.48;100.00
32330;BME280;18807;52.434;13.238;2023-03-21T02:48:06;101214.84;;;8.45;100.00
32330;BME280;18807;52.434;13.238;2023-03-21T02:55:59;101219.22;;;8.43;100.00
32330;BME280;18807;52.434;13.238;2023-03-21T03:03:34;101212.09;;;8.42;100.00
32330;BME280;18807;52.434;13.238;2023-03-21T03:11:22;101212.09;;;8.42;100.00
32330;BME280;18807;52.434;13.238;2023-03-21T03:18:59;101211.13;;;8.40;100.00
32330;BME280;18807;52.434;13.238;2023-03-21T03:26:38;101206.63;;;8.38;100.00
32330;BME280;18807;52.434;13.238;2023-03-21T03:34:16;101213.75;;;8.39;100.00
32330;BME280;18807;52.434;13.238;2023-03-21T03:41:57;101220.81;;;8.37;100.00
32330;BME280;18807;52.434;13.238;2023-03-21T03:49:56;101226.06;;;8.35;100.00
32330;BME280;18807;52.434;13.238;2023-03-21T03:57:35;101218.88;;;8.33;100.00
32330;BME280;18807;52.434;13.238;2023-03-21T04:05:09;101215.28;;;8.31;100.00
32330;BME280;18807;52.434;13.238;2023-03-21T04:12:44;101218.03;;;8.34;100.00
32330;BME280;18807;52.434;13.238;2023-03-21T04:20:19;101210.75;;;8.28;100.00
32330;BME280;18807;52.434;13.238;2023-03-21T04:28:09;101215.16;;;8.26;100.00
32330;BME280;18807;52.434;13.238;2023-03-21T04:35:43;101213.22;;;8.22;100.00
32330;BME280;18807;52.434;13.238;2023-03-21T04:43:19;101212.31;;;8.22;100.00
32330;BME280;18807;52.434;13.238;2023-03-21T04:50:53;101212.38;;;8.23;100.00
32330;BME280;18807;52.434;13.238;2023-03-21T04:58:28;101211.53;;;8.24;100.00
32330;BME280;18807;52.434;13.238;2023-03-21T05:06:03;101210.59;;;8.24;100.00
32330;BME280;18807;52.434;13.238;2023-03-21T05:13:39;101203.41;;;8.21;100.00
32330;BME280;18807;52.434;13.238;2023-03-21T05:21:13;101208.69;;;8.19;100.00
32330;BME280;18807;52.434;13.238;2023-03-21T05:28:51;101205.97;;;8.18;100.00
32330;BME280;18807;52.434;13.238;2023-03-21T05:36:25;101196.19;;;8.17;100.00
32330;BME280;18807;52.434;13.238;2023-03-21T05:44:00;101207.72;;;8.17;100.00
32330;BME280;18807;52.434;13.238;2023-03-21T05:51:34;101212.06;;;8.14;100.00
32330;BME280;18807;52.434;13.238;2023-03-21T05:59:09;101208.38;;;8.10;100.00
32330;BME280;18807;52.434;13.238;2023-03-21T06:06:43;101210.84;;;8.04;100.00
32330;BME280;18807;52.434;13.238;2023-03-21T06:14:19;101215.34;;;8.05;100.00
32330;BME280;18807;52.434;13.238;2023-03-21T06:22:10;101215.34;;;8.07;100.00
32330;BME280;18807;52.434;13.238;2023-03-21T06:29:45;101218.88;;;8.06;100.00
32330;BME280;18807;52.434;13.238;2023-03-21T06:37:19;101228.69;;;8.08;100.00
32330;BME280;18807;52.434;13.238;2023-03-21T06:44:55;101224.44;;;8.13;100.00
32330;BME280;18807;52.434;13.238;2023-03-21T06:52:29;101220.97;;;8.16;100.00
32330;BME280;18807;52.434;13.238;2023-03-21T07:00:07;101230.69;;;8.14;100.00
32330;BME280;18807;52.434;13.238;2023-03-21T07:07:41;101228.84;;;8.13;100.00
32330;BME280;18807;52.434;13.238;2023-03-21T07:15:16;101227.31;;;8.19;100.00
32330;BME280;18807;52.434;13.238;2023-03-21T07:22:50;101228.16;;;8.18;100.00
32330;BME280;18807;52.434;13.238;2023-03-21T07:30:26;101232.75;;;8.23;100.00
32330;BME280;18807;52.434;13.238;2023-03-21T07:38:00;101235.72;;;8.32;100.00
32330;BME280;18807;52.434;13.238;2023-03-21T07:45:35;101235.81;;;8.35;100.00
32330;BME280;18807;52.434;13.238;2023-03-21T07:53:09;101236.91;;;8.41;100.00
32330;BME280;18807;52.434;13.238;2023-03-21T08:00:45;101237.06;;;8.47;100.00
32330;BME280;18807;52.434;13.238;2023-03-21T08:08:18;101229.19;;;8.50;100.00
32330;BME280;18807;52.434;13.238;2023-03-21T08:15:54;101231.09;;;8.54;100.00
32330;BME280;18807;52.434;13.238;2023-03-21T08:23:45;101233.94;;;8.60;100.00
32330;BME280;18807;52.434;13.238;2023-03-21T08:31:21;101231.28;;;8.60;100.00
32330;BME280;18807;52.434;13.238;2023-03-21T08:38:55;101223.53;;;8.68;100.00
32330;BME280;18807;52.434;13.238;2023-03-21T08:46:38;101224.50;;;8.71;100.00
32330;BME280;18807;52.434;13.238;2023-03-21T08:54:18;101231.84;;;8.78;100.00
32330;BME280;18807;52.434;13.238;2023-03-21T09:01:53;101218.56;;;8.80;100.00
32330;BME280;18807;52.434;13.238;2023-03-21T09:09:27;101225.03;;;8.89;100.00
32330;BME280;18807;52.434;13.238;2023-03-21T09:17:20;101223.56;;;8.99;100.00
32330;BME280;18807;52.434;13.238;2023-03-21T09:24:54;101223.78;;;9.06;100.00
32330;BME280;18807;52.434;13.238;2023-03-21T09:32:30;101231.13;;;9.15;100.00
32330;BME280;18807;52.434;13.238;2023-03-21T09:40:07;101220.75;;;9.25;100.00
32330;BME280;18807;52.434;13.238;2023-03-21T09:47:46;101223.69;;;9.34;100.00
32330;BME280;18807;52.434;13.238;2023-03-21T09:55:26;101213.31;;;9.45;100.00
32330;BME280;18807;52.434;13.238;2023-03-21T10:03:19;101215.34;;;9.55;100.00
32330;BME280;18807;52.434;13.238;2023-03-21T10:10:58;101212.13;;;9.68;100.00
32330;BME280;18807;52.434;13.238;2023-03-21T10:18:35;101197.19;;;9.74;100.00
32330;BME280;18807;52.434;13.238;2023-03-21T10:26:10;101195.59;;;9.82;100.00
32330;BME280;18807;52.434;13.238;2023-03-21T10:33:49;101187.78;;;9.90;100.00
32330;BME280;18807;52.434;13.238;2023-03-21T10:41:24;101180.16;;;10.05;100.00
32330;BME280;18807;52.434;13.238;2023-03-21T10:49:00;101174.28;;;10.20;100.00
32330;BME280;18807;52.434;13.238;2023-03-21T10:56:36;101167.50;;;10.34;100.00
32330;BME280;18807;52.434;13.238;2023-03-21T11:04:15;101170.56;;;10.50;100.00
32330;BME280;18807;52.434;13.238;2023-03-21T11:11:52;101172.72;;;10.68;100.00
32330;BME280;18807;52.434;13.238;2023-03-21T11:19:31;101168.41;;;10.76;100.00
32330;BME280;18807;52.434;13.238;2023-03-21T11:27:06;101158.84;;;10.87;100.00
32330;BME280;18807;52.434;13.238;2023-03-21T11:34:45;101144.91;;;11.03;100.00
32330;BME280;18807;52.434;13.238;2023-03-21T11:42:28;101138.94;;;11.17;100.00
32330;BME280;18807;52.434;13.238;2023-03-21T11:50:15;101126.00;;;11.40;100.00
32330;BME280;18807;52.434;13.238;2023-03-21T11:57:58;101119.22;;;11.60;100.00
32330;BME280;18807;52.434;13.238;2023-03-21T12:05:52;101113.25;;;11.74;100.00
32330;BME280;18807;52.434;13.238;2023-03-21T12:13:35;101108.06;;;11.85;100.00
32330;BME280;18807;52.434;13.238;2023-03-21T12:21:18;101095.59;;;11.88;100.00
32330;BME280;18807;52.434;13.238;2023-03-21T12:29:07;101095.59;;;11.88;100.00
32330;BME280;18807;52.434;13.238;2023-03-21T12:36:58;101084.91;;;11.90;100.00
32330;BME280;18807;52.434;13.238;2023-03-21T12:44:40;101078.63;;;11.85;100.00
32330;BME280;18807;52.434;13.238;2023-03-21T12:52:20;101074.16;;;11.87;100.00
32330;BME280;18807;52.434;13.238;2023-03-21T12:59:59;101064.44;;;11.92;100.00
32330;BME280;18807;52.434;13.238;2023-03-21T13:07:42;101058.22;;;11.94;100.00
32330;BME280;18807;52.434;13.238;2023-03-21T13:15:46;101044.84;;;11.96;100.00
32330;BME280;18807;52.434;13.238;2023-03-21T13:23:25;101037.75;;;11.98;100.00
32330;BME280;18807;52.434;13.238;2023-03-21T13:31:17;101030.59;;;11.95;100.00
32330;BME280;18807;52.434;13.238;2023-03-21T13:38:58;101018.16;;;12.02;100.00
32330;BME280;18807;52.434;13.238;2023-03-21T13:46:35;101022.72;;;12.07;100.00
32330;BME280;18807;52.434;13.238;2023-03-21T13:54:30;101018.28;;;12.11;100.00
32330;BME280;18807;52.434;13.238;2023-03-21T14:02:23;101006.75;;;12.18;100.00
32330;BME280;18807;52.434;13.238;2023-03-21T14:10:03;101003.34;;;12.28;100.00
32330;BME280;18807;52.434;13.238;2023-03-21T14:17:48;100993.56;;;12.35;100.00
32330;BME280;18807;52.434;13.238;2023-03-21T14:25:32;100990.00;;;12.33;100.00
32330;BME280;18807;52.434;13.238;2023-03-21T14:33:19;100973.03;;;12.34;100.00
32330;BME280;18807;52.434;13.238;2023-03-21T14:40:57;100973.97;;;12.36;100.00
32330;BME280;18807;52.434;13.238;2023-03-21T14:48:32;100965.94;;;12.37;100.00
32330;BME280;18807;52.434;13.238;2023-03-21T14:56:15;100962.38;;;12.40;100.00
32330;BME280;18807;52.434;13.238;2023-03-21T15:03:51;100951.69;;;12.41;100.00
32330;BME280;18807;52.434;13.238;2023-03-21T15:11:31;100944.59;;;12.45;100.00
32330;BME280;18807;52.434;13.238;2023-03-21T15:19:06;100936.53;;;12.48;100.00
32330;BME280;18807;52.434;13.238;2023-03-21T15:26:45;100934.75;;;12.45;100.00
32330;BME280;18807;52.434;13.238;2023-03-21T15:34:21;100933.88;;;12.48;100.00
32330;BME280;18807;52.434;13.238;2023-03-21T15:41:59;100926.72;;;12.47;100.00
32330;BME280;18807;52.434;13.238;2023-03-21T15:49:39;100920.47;;;12.45;100.00
32330;BME280;18807;52.434;13.238;2023-03-21T15:57:19;100906.13;;;12.40;100.00
32330;BME280;18807;52.434;13.238;2023-03-21T16:04:57;100890.00;;;12.35;100.00
32330;BME280;18807;52.434;13.238;2023-03-21T16:12:36;100897.16;;;12.36;100.00
32330;BME280;18807;52.434;13.238;2023-03-21T16:20:18;100886.38;;;12.32;100.00
32330;BME280;18807;52.434;13.238;2023-03-21T16:27:56;100904.25;;;12.31;100.00
32330;BME280;18807;52.434;13.238;2023-03-21T16:35:31;100896.19;;;12.28;100.00
32330;BME280;18807;52.434;13.238;2023-03-21T16:43:07;100906.94;;;12.30;100.00
32330;BME280;18807;52.434;13.238;2023-03-21T16:50:44;100899.72;;;12.27;100.00
32330;BME280;18807;52.434;13.238;2023-03-21T16:58:21;100888.97;;;12.23;100.00
32330;BME280;18807;52.434;13.238;2023-03-21T17:05:56;100897.91;;;12.22;100.00
32330;BME280;18807;52.434;13.238;2023-03-21T17:13:32;100877.34;;;12.19;100.00
32330;BME280;18807;52.434;13.238;2023-03-21T17:21:11;100875.53;;;12.18;100.00
32330;BME280;18807;52.434;13.238;2023-03-21T17:28:47;100880.84;;;12.13;100.00
32330;BME280;18807;52.434;13.238;2023-03-21T17:36:25;100869.22;;;12.10;100.00
32330;BME280;18807;52.434;13.238;2023-03-21T17:44:02;100868.25;;;12.05;100.00
32330;BME280;18807;52.434;13.238;2023-03-21T17:51:36;100868.22;;;12.02;100.00
32330;BME280;18807;52.434;13.238;2023-03-21T17:59:12;100863.75;;;12.01;100.00
32330;BME280;18807;52.434;13.238;2023-03-21T18:06:47;100859.28;;;11.98;100.00
32330;BME280;18807;52.434;13.238;2023-03-21T18:14:22;100868.19;;;11.97;100.00
32330;BME280;18807;52.434;13.238;2023-03-21T18:22:00;100870.84;;;11.96;100.00
32330;BME280;18807;52.434;13.238;2023-03-21T18:29:36;100861.91;;;11.92;100.00
32330;BME280;18807;52.434;13.238;2023-03-21T18:37:30;100861.88;;;11.89;100.00
32330;BME280;18807;52.434;13.238;2023-03-21T18:45:09;100868.97;;;11.89;100.00
32330;BME280;18807;52.434;13.238;2023-03-21T18:52:44;100873.38;;;11.85;100.00
32330;BME280;18807;52.434;13.238;2023-03-21T19:00:20;100875.13;;;11.80;100.00
32330;BME280;18807;52.434;13.238;2023-03-21T19:07:55;100875.13;;;11.79;100.00
32330;BME280;18807;52.434;13.238;2023-03-21T19:15:30;100867.06;;;11.76;100.00
32330;BME280;18807;52.434;13.238;2023-03-21T19:23:04;100860.75;;;11.72;100.00
32330;BME280;18807;52.434;13.238;2023-03-21T19:30:42;100862.53;;;11.73;100.00
32330;BME280;18807;52.434;13.238;2023-03-21T19:38:22;100858.03;;;11.69;100.00
32330;BME280;18807;52.434;13.238;2023-03-21T19:45:57;100855.19;;;11.59;100.00
32330;BME280;18807;52.434;13.238;2023-03-21T19:53:32;100852.47;;;11.54;100.00
32330;BME280;18807;52.434;13.238;2023-03-21T20:01:07;100853.34;;;11.52;100.00
32330;BME280;18807;52.434;13.238;2023-03-21T20:08:42;100860.38;;;11.47;100.00
32330;BME280;18807;52.434;13.238;2023-03-21T20:16:38;100863.94;;;11.46;100.00
32330;BME280;18807;52.434;13.238;2023-03-21T20:24:15;100867.53;;;11.46;100.00
32330;BME280;18807;52.434;13.238;2023-03-21T20:31:51;100867.47;;;11.42;100.00
32330;BME280;18807;52.434;13.238;2023-03-21T20:39:46;100862.94;;;11.38;100.00
32330;BME280;18807;52.434;13.238;2023-03-21T20:47:21;100863.81;;;11.35;100.00
32330;BME280;18807;52.434;13.238;2023-03-21T20:54:55;100846.78;;;11.27;100.00
32330;BME280;18807;52.434;13.238;2023-03-21T21:02:31;100836.06;;;11.24;100.00
32330;BME280;18807;52.434;13.238;2023-03-21T21:10:06;100831.41;;;11.13;100.00
32330;BME280;18807;52.434;13.238;2023-03-21T21:17:43;100840.38;;;11.16;100.00
32330;BME280;18807;52.434;13.238;2023-03-21T21:25:37;100849.28;;;11.14;100.00
32330;BME280;18807;52.434;13.238;2023-03-21T21:33:13;100841.22;;;11.11;100.00
32330;BME280;18807;52.434;13.238;2023-03-21T21:40:50;100820.56;;;11.02;100.00
32330;BME280;18807;52.434;13.238;2023-03-21T21:48:26;100833.03;;;11.00;100.00
32330;BME280;18807;52.434;13.238;2023-03-21T21:56:00;100814.28;;;10.97;100.00
32330;BME280;18807;52.434;13.238;2023-03-21T22:03:36;100816.91;;;10.94;100.00
32330;BME280;18807;52.434;13.238;2023-03-21T22:11:13;100818.66;;;10.94;100.00
32330;BME280;18807;52.434;13.238;2023-03-21T22:18:48;100811.50;;;10.90;100.00
32330;BME280;18807;52.434;13.238;2023-03-21T22:26:23;100828.41;;;10.89;100.00
32330;BME280;18807;52.434;13.238;2023-03-21T22:33:58;100822.13;;;10.87;100.00
32330;BME280;18807;52.434;13.238;2023-03-21T22:41:32;100801.59;;;10.81;100.00
32330;BME280;18807;52.434;13.238;2023-03-21T22:49:08;100808.66;;;10.78;100.00
32330;BME280;18807;52.434;13.238;2023-03-21T22:56:42;100814.81;;;10.74;100.00
32330;BME280;18807;52.434;13.238;2023-03-21T23:04:17;100800.53;;;10.72;100.00
32330;BME280;18807;52.434;13.238;2023-03-21T23:11:51;100802.28;;;10.70;100.00
32330;BME280;18807;52.434;13.238;2023-03-21T23:19:27;100812.06;;;10.68;100.00
32330;BME280;18807;52.434;13.238;2023-03-21T23:27:02;100800.44;;;10.66;100.00
32330;BME280;18807;52.434;13.238;2023-03-21T23:34:37;100789.69;;;10.61;100.00
32330;BME280;18807;52.434;13.238;2023-03-21T23:42:11;100778.03;;;10.55;100.00
32330;BME280;18807;52.434;13.238;2023-03-21T23:49:49;100777.09;;;10.53;100.00
32330;BME280;18807;52.434;13.238;2023-03-21T23:57:24;100777.88;;;10.44;100.00
